Vail, Colorado
Current Conditions -  °F | °C
As of 10:57 PM on Tuesday 21 Oct 2014 (Local Time) from KCCU Reporting Station
Broken Clouds Broken Clouds  
Wind Chill: 29°   Ceiling: 4000
Heat Index: 37°   Visibility: 10mi
Dew Point: 30°   Wind: 13mph
Humidity: 75%   Direction: 230°SW
Pressure: 30.32"   Gusts: 21mph
Location:  39.64°N, 106.38°W
Report Text: KCCU 220457Z AUTO 23011G18KT 10SM BKN040 03/M01 A3032 RMK AO2
Loading
Personal Weather Stations






























Interactive Weather Map
Tropical Storm Tracking
New forecast layout! Learn more

10-Day Weather Forecast

Advertisements
Track Severe Weather on mobile